Time;durP1;ratioP1;P1;durP2;ratioP2;P2;SDS_P1;SDS_P2;PMS_P1;PMS_P2;Temp;Humidity;BMP_temperature;BMP_pressure;BME280_temperature;BME280_humidity;BME280_pressure;Samples;Min_cycle;Max_cycle;Signal;HPM_P1;HPM_P2
2023/10/22 00:01:22;;;;;;;3.10;0.93;;;;;;;;;;5067373;27;100446;-74
2023/10/22 00:03:51;;;;;;;1.02;0.70;;;;;;;;;;5067866;27;99966;-74
2023/10/22 00:06:17;;;;;;;1.55;1.00;;;;;;;;;;5065355;27;100647;-75
2023/10/22 00:08:44;;;;;;;1.58;0.90;;;;;;;;;;5053522;27;101256;-76
2023/10/22 00:11:10;;;;;;;3.50;0.82;;;;;;;;;;5057606;27;101012;-74
2023/10/22 00:13:37;;;;;;;5.90;0.98;;;;;;;;;;5054959;27;100246;-74
2023/10/22 00:16:04;;;;;;;1.00;0.80;;;;;;;;;;5053034;27;100676;-74
2023/10/22 00:18:30;;;;;;;3.47;0.90;;;;;;;;;;5074871;27;99414;-75
2023/10/22 00:20:58;;;;;;;4.00;1.00;;;;;;;;;;5052985;27;100408;-74
2023/10/22 00:23:26;;;;;;;2.13;0.90;;;;;;;;;;5052496;27;101712;-75
2023/10/22 00:25:52;;;;;;;0.68;0.68;;;;;;;;;;5058291;27;99894;-75
2023/10/22 00:28:19;;;;;;;1.77;1.05;;;;;;;;;;5055617;27;101646;-75
2023/10/22 00:30:46;;;;;;;5.38;1.25;;;;;;;;;;5053274;27;100262;-74
2023/10/22 00:33:13;;;;;;;3.20;1.15;;;;;;;;;;5052427;27;99596;-75
2023/10/22 00:35:40;;;;;;;1.80;1.08;;;;;;;;;;5058979;27;98890;-74
2023/10/22 00:38:08;;;;;;;4.55;1.20;;;;;;;;;;5059850;27;100354;-75
2023/10/22 00:40:35;;;;;;;4.32;1.00;;;;;;;;;;5052048;27;99630;-73
2023/10/22 00:43:05;;;;;;;3.53;1.05;;;;;;;;;;5056070;27;100286;-74
2023/10/22 00:45:35;;;;;;;6.38;1.58;;;;;;;;;;5059779;27;100622;-74
2023/10/22 00:48:01;;;;;;;2.17;0.98;;;;;;;;;;5056258;27;99999;-74
2023/10/22 00:50:28;;;;;;;3.22;1.35;;;;;;;;;;5062308;27;100234;-74
2023/10/22 00:52:55;;;;;;;2.47;0.93;;;;;;;;;;5080927;27;100184;-74
2023/10/22 00:55:23;;;;;;;2.42;1.27;;;;;;;;;;5053006;27;99078;-74
2023/10/22 00:57:51;;;;;;;2.40;1.20;;;;;;;;;;5061908;27;99055;-74
2023/10/22 01:00:19;;;;;;;1.17;1.00;;;;;;;;;;5057943;27;99739;-74
2023/10/22 01:02:45;;;;;;;2.58;1.08;;;;;;;;;;5059754;27;100221;-75
2023/10/22 01:05:12;;;;;;;5.10;1.08;;;;;;;;;;5057888;27;100134;-74
2023/10/22 01:07:38;;;;;;;2.92;1.10;;;;;;;;;;5050807;27;100151;-74
2023/10/22 01:10:06;;;;;;;3.20;1.15;;;;;;;;;;5063942;27;98892;-75
2023/10/22 01:12:34;;;;;;;1.65;1.10;;;;;;;;;;5061337;27;101527;-74
2023/10/22 01:15:02;;;;;;;1.30;1.20;;;;;;;;;;5054580;27;100150;-75
2023/10/22 01:17:28;;;;;;;0.90;0.90;;;;;;;;;;5055119;27;101065;-74
2023/10/22 01:19:55;;;;;;;5.70;1.20;;;;;;;;;;5055531;27;100644;-75
2023/10/22 01:22:23;;;;;;;3.50;1.30;;;;;;;;;;5053966;27;100614;-75
2023/10/22 01:24:49;;;;;;;1.05;0.90;;;;;;;;;;5052109;27;101737;-74
2023/10/22 01:27:16;;;;;;;3.38;1.20;;;;;;;;;;5073104;27;99339;-75
2023/10/22 01:29:42;;;;;;;5.90;1.10;;;;;;;;;;5058766;27;100029;-74
2023/10/22 01:32:09;;;;;;;3.78;0.80;;;;;;;;;;5060616;27;99399;-74
2023/10/22 01:34:35;;;;;;;1.77;1.05;;;;;;;;;;5063062;27;99858;-74
2023/10/22 01:37:02;;;;;;;3.17;1.08;;;;;;;;;;5053411;27;100335;-74
2023/10/22 01:39:28;;;;;;;1.55;0.90;;;;;;;;;;5055596;27;99943;-74
2023/10/22 01:41:55;;;;;;;1.42;0.98;;;;;;;;;;5053416;27;101245;-74
2023/10/22 01:44:21;;;;;;;0.95;0.82;;;;;;;;;;5048255;27;100731;-74
2023/10/22 01:46:48;;;;;;;2.00;1.10;;;;;;;;;;5060275;27;99516;-75
2023/10/22 01:49:16;;;;;;;1.63;1.52;;;;;;;;;;5064188;27;100828;-75
2023/10/22 01:51:42;;;;;;;3.05;0.98;;;;;;;;;;5051847;27;99385;-75
2023/10/22 01:54:09;;;;;;;1.33;1.00;;;;;;;;;;5051205;27;100558;-75
2023/10/22 01:56:36;;;;;;;3.80;1.00;;;;;;;;;;5058765;27;100100;-75
2023/10/22 01:59:04;;;;;;;5.80;0.90;;;;;;;;;;5052626;27;99294;-73
2023/10/22 02:01:31;;;;;;;3.33;0.98;;;;;;;;;;5055259;27;100076;-73
2023/10/22 02:03:57;;;;;;;0.80;0.80;;;;;;;;;;5053555;27;100294;-75
2023/10/22 02:06:24;;;;;;;1.48;0.90;;;;;;;;;;5051659;27;99979;-75
2023/10/22 02:08:50;;;;;;;2.42;0.90;;;;;;;;;;5053549;27;100030;-75
2023/10/22 02:11:17;;;;;;;1.38;0.80;;;;;;;;;;5049148;27;99594;-75
2023/10/22 02:13:44;;;;;;;0.90;0.90;;;;;;;;;;5054525;27;99304;-75
2023/10/22 02:16:11;;;;;;;0.70;0.70;;;;;;;;;;5064135;27;99371;-75
2023/10/22 02:18:37;;;;;;;3.55;1.30;;;;;;;;;;5055743;27;100407;-75
2023/10/22 02:21:04;;;;;;;1.15;1.02;;;;;;;;;;5049901;27;100669;-75
2023/10/22 02:23:32;;;;;;;1.20;0.90;;;;;;;;;;5055006;27;102205;-75
2023/10/22 02:25:58;;;;;;;2.60;0.80;;;;;;;;;;5052543;27;99632;-74
2023/10/22 02:28:25;;;;;;;1.65;0.90;;;;;;;;;;5054302;27;99591;-74
2023/10/22 02:30:51;;;;;;;1.42;0.90;;;;;;;;;;5057042;27;100045;-75
2023/10/22 02:33:19;;;;;;;1.38;1.02;;;;;;;;;;5054483;27;99598;-75
2023/10/22 02:35:46;;;;;;;4.13;0.85;;;;;;;;;;5052209;27;101339;-75
2023/10/22 02:38:14;;;;;;;0.80;0.80;;;;;;;;;;5055338;27;102352;-76
2023/10/22 02:40:41;;;;;;;0.60;0.60;;;;;;;;;;5083410;27;100592;-76
2023/10/22 02:43:08;;;;;;;2.05;0.93;;;;;;;;;;5051283;27;100317;-74
2023/10/22 02:45:34;;;;;;;2.22;0.60;;;;;;;;;;5054067;27;100910;-74
2023/10/22 02:48:01;;;;;;;2.70;0.60;;;;;;;;;;5057204;27;99475;-76
2023/10/22 02:50:29;;;;;;;0.63;0.63;;;;;;;;;;5053288;27;99277;-77
2023/10/22 02:52:56;;;;;;;0.70;0.70;;;;;;;;;;5058448;27;99543;-76
2023/10/22 02:55:24;;;;;;;1.08;1.00;;;;;;;;;;5056731;27;99002;-76
2023/10/22 02:57:51;;;;;;;0.63;0.60;;;;;;;;;;5058950;27;101455;-74
2023/10/22 03:00:19;;;;;;;0.60;0.60;;;;;;;;;;5062137;27;100484;-76
2023/10/22 03:03:01;;;;;;;0.70;0.70;;;;;;;;;;5051128;27;99642;-75
2023/10/22 03:05:33;;;;;;;0.53;0.53;;;;;;;;;;5061688;27;99885;-75
2023/10/22 03:08:00;;;;;;;0.50;0.50;;;;;;;;;;5058505;27;100525;-75
2023/10/22 03:10:27;;;;;;;0.98;0.70;;;;;;;;;;5054445;27;101093;-75
2023/10/22 03:12:53;;;;;;;0.50;0.50;;;;;;;;;;5057853;27;99828;-75
2023/10/22 03:15:20;;;;;;;0.63;0.50;;;;;;;;;;5059604;27;100413;-75
2023/10/22 03:17:46;;;;;;;0.60;0.60;;;;;;;;;;5053863;27;100230;-75
2023/10/22 03:20:16;;;;;;;0.50;0.50;;;;;;;;;;5056303;27;100738;-75
2023/10/22 03:22:43;;;;;;;0.95;0.70;;;;;;;;;;5059004;27;98986;-76
2023/10/22 03:25:12;;;;;;;0.50;0.50;;;;;;;;;;5054873;27;100557;-75
2023/10/22 03:27:40;;;;;;;0.88;0.70;;;;;;;;;;5052211;27;99713;-75
2023/10/22 03:30:07;;;;;;;0.55;0.55;;;;;;;;;;5053219;27;100260;-75
2023/10/22 03:32:34;;;;;;;0.63;0.63;;;;;;;;;;5055120;27;99092;-75
2023/10/22 03:35:00;;;;;;;6.32;0.88;;;;;;;;;;5055877;27;99455;-75
2023/10/22 03:37:28;;;;;;;4.25;0.90;;;;;;;;;;5056340;27;100508;-75
2023/10/22 03:39:54;;;;;;;1.83;0.80;;;;;;;;;;5057807;27;100411;-74
2023/10/22 03:42:20;;;;;;;0.63;0.63;;;;;;;;;;5056392;27;99008;-75
2023/10/22 03:44:47;;;;;;;3.30;0.88;;;;;;;;;;5059064;27;99637;-75
2023/10/22 03:47:15;;;;;;;1.83;1.10;;;;;;;;;;5059544;27;99806;-75
2023/10/22 03:49:41;;;;;;;0.85;0.85;;;;;;;;;;5056331;27;99197;-74
2023/10/22 03:52:08;;;;;;;1.55;0.88;;;;;;;;;;5056534;27;99258;-74
2023/10/22 03:54:34;;;;;;;1.27;1.00;;;;;;;;;;5060009;27;100075;-76
2023/10/22 03:57:01;;;;;;;1.30;1.17;;;;;;;;;;5059769;27;99430;-76
2023/10/22 03:59:27;;;;;;;2.25;1.25;;;;;;;;;;5052554;27;101164;-73
2023/10/22 04:01:55;;;;;;;1.85;1.42;;;;;;;;;;5055153;27;100824;-74
2023/10/22 04:04:22;;;;;;;2.50;1.52;;;;;;;;;;5057637;27;101305;-75
2023/10/22 04:06:49;;;;;;;7.03;2.13;;;;;;;;;;5060665;27;99533;-75
2023/10/22 04:09:15;;;;;;;3.13;1.90;;;;;;;;;;5052187;27;100432;-75
2023/10/22 04:11:42;;;;;;;6.32;2.28;;;;;;;;;;5056899;27;100327;-75
2023/10/22 04:14:08;;;;;;;6.45;2.20;;;;;;;;;;5055560;27;99892;-74
2023/10/22 04:16:34;;;;;;;4.78;2.83;;;;;;;;;;5056243;27;100511;-74
2023/10/22 04:19:01;;;;;;;4.82;2.78;;;;;;;;;;5054188;27;100598;-74
2023/10/22 04:21:27;;;;;;;4.75;2.88;;;;;;;;;;5055171;27;100080;-74
2023/10/22 04:23:54;;;;;;;8.40;3.00;;;;;;;;;;5051249;27;101634;-73
2023/10/22 04:26:20;;;;;;;14.65;2.97;;;;;;;;;;5058362;27;100323;-75
2023/10/22 04:28:47;;;;;;;6.15;2.50;;;;;;;;;;5056119;27;99929;-75
2023/10/22 04:31:14;;;;;;;3.13;2.67;;;;;;;;;;5056905;27;101341;-74
2023/10/22 04:33:40;;;;;;;6.50;2.65;;;;;;;;;;5050756;27;99891;-76
2023/10/22 04:36:14;;;;;;;4.32;2.10;;;;;;;;;;5055295;27;100344;-75
2023/10/22 04:38:40;;;;;;;2.10;2.00;;;;;;;;;;5055990;27;100266;-75
2023/10/22 04:41:13;;;;;;;7.68;2.42;;;;;;;;;;5053047;27;100107;-75
2023/10/22 04:43:39;;;;;;;2.72;1.73;;;;;;;;;;5054131;27;100044;-75
2023/10/22 04:46:06;;;;;;;4.07;2.40;;;;;;;;;;5053751;27;100667;-75
2023/10/22 04:48:32;;;;;;;3.72;1.77;;;;;;;;;;5052328;27;101248;-75
2023/10/22 04:51:06;;;;;;;5.45;1.58;;;;;;;;;;5052022;27;100257;-75
2023/10/22 04:53:34;;;;;;;4.90;1.90;;;;;;;;;;5059543;27;100197;-76
2023/10/22 04:56:01;;;;;;;6.65;1.55;;;;;;;;;;5055353;27;99905;-74
2023/10/22 04:58:28;;;;;;;4.38;1.95;;;;;;;;;;5055685;27;99462;-75
2023/10/22 05:00:55;;;;;;;8.15;2.10;;;;;;;;;;5052209;27;101644;-75
2023/10/22 05:03:22;;;;;;;5.75;1.92;;;;;;;;;;5051772;27;100150;-75
2023/10/22 05:05:48;;;;;;;6.43;1.92;;;;;;;;;;5056290;27;99561;-74
2023/10/22 05:08:15;;;;;;;4.05;2.15;;;;;;;;;;5053335;27;99929;-75
2023/10/22 05:10:41;;;;;;;5.18;2.25;;;;;;;;;;5062435;27;100319;-74
2023/10/22 05:13:08;;;;;;;9.13;2.38;;;;;;;;;;5053338;27;99940;-75
2023/10/22 05:15:35;;;;;;;4.25;1.90;;;;;;;;;;5052297;27;99907;-75
2023/10/22 05:18:05;;;;;;;5.57;2.25;;;;;;;;;;5057863;27;99362;-75
2023/10/22 05:20:34;;;;;;;2.90;1.83;;;;;;;;;;5048809;27;99940;-75
2023/10/22 05:23:03;;;;;;;4.53;1.90;;;;;;;;;;5053658;27;99856;-74
2023/10/22 05:25:29;;;;;;;6.13;2.65;;;;;;;;;;5057421;27;100083;-74
2023/10/22 05:27:56;;;;;;;4.60;1.92;;;;;;;;;;5057325;27;100205;-74
2023/10/22 05:30:22;;;;;;;2.92;2.10;;;;;;;;;;5049009;27;99766;-74
2023/10/22 05:32:49;;;;;;;4.43;2.58;;;;;;;;;;5052879;27;100469;-74
2023/10/22 05:35:15;;;;;;;4.03;2.53;;;;;;;;;;5048218;27;99389;-74
2023/10/22 05:37:43;;;;;;;7.55;2.67;;;;;;;;;;5050706;27;101249;-74
2023/10/22 05:40:11;;;;;;;3.53;2.47;;;;;;;;;;5055923;27;100242;-74
2023/10/22 05:42:38;;;;;;;8.10;2.47;;;;;;;;;;5051499;27;100796;-74
2023/10/22 05:45:05;;;;;;;10.63;2.88;;;;;;;;;;5049692;27;100184;-74
2023/10/22 05:47:32;;;;;;;8.57;2.70;;;;;;;;;;5050973;27;100685;-75
2023/10/22 05:49:59;;;;;;;4.82;2.05;;;;;;;;;;5048524;27;100124;-74
2023/10/22 05:52:26;;;;;;;4.65;2.25;;;;;;;;;;5051283;27;100279;-76
2023/10/22 05:54:53;;;;;;;6.43;2.60;;;;;;;;;;5056747;27;99713;-74
2023/10/22 05:57:21;;;;;;;6.10;2.47;;;;;;;;;;5054223;27;100029;-74
2023/10/22 05:59:47;;;;;;;5.82;2.72;;;;;;;;;;5050165;27;100240;-75
2023/10/22 06:02:14;;;;;;;6.68;3.40;;;;;;;;;;5054555;27;100782;-74
2023/10/22 06:04:40;;;;;;;2.65;2.45;;;;;;;;;;5057068;27;98927;-73
2023/10/22 06:07:10;;;;;;;3.80;2.78;;;;;;;;;;5052406;27;100451;-73
2023/10/22 06:09:36;;;;;;;2.08;1.98;;;;;;;;;;5048812;27;101874;-75
2023/10/22 06:12:03;;;;;;;8.05;2.72;;;;;;;;;;5050832;27;100278;-75
2023/10/22 06:14:29;;;;;;;3.17;2.42;;;;;;;;;;5053810;27;99256;-74
2023/10/22 06:16:56;;;;;;;6.45;2.67;;;;;;;;;;5053629;27;100437;-75
2023/10/22 06:19:23;;;;;;;6.13;2.33;;;;;;;;;;5052231;27;99943;-74
2023/10/22 06:21:50;;;;;;;6.82;2.30;;;;;;;;;;5052018;27;99640;-73
2023/10/22 06:24:17;;;;;;;3.17;2.10;;;;;;;;;;5051581;27;99248;-74
2023/10/22 06:26:45;;;;;;;3.85;2.00;;;;;;;;;;5047681;27;99639;-75
2023/10/22 06:29:11;;;;;;;2.50;2.08;;;;;;;;;;5052527;27;99557;-75
2023/10/22 06:31:38;;;;;;;4.75;2.35;;;;;;;;;;5049685;27;99819;-74
2023/10/22 06:34:05;;;;;;;3.72;1.80;;;;;;;;;;5051486;27;100534;-75
2023/10/22 06:36:32;;;;;;;3.05;1.75;;;;;;;;;;5054665;27;100961;-74
2023/10/22 06:38:58;;;;;;;5.07;2.17;;;;;;;;;;5050109;27;100293;-74
2023/10/22 06:41:25;;;;;;;5.13;2.00;;;;;;;;;;5053397;27;100151;-74
2023/10/22 06:43:53;;;;;;;2.50;1.98;;;;;;;;;;5050658;27;99774;-74
2023/10/22 06:46:20;;;;;;;6.68;2.60;;;;;;;;;;5052610;27;99944;-74
2023/10/22 06:48:49;;;;;;;7.28;2.15;;;;;;;;;;5046981;27;100132;-73
2023/10/22 06:51:16;;;;;;;5.70;2.47;;;;;;;;;;5053791;27;100581;-76
2023/10/22 06:53:46;;;;;;;2.78;2.13;;;;;;;;;;5055683;27;100064;-74
2023/10/22 06:56:13;;;;;;;4.63;2.15;;;;;;;;;;5057775;27;100168;-75
2023/10/22 06:58:40;;;;;;;4.20;2.22;;;;;;;;;;5058989;27;99896;-75
2023/10/22 07:01:11;;;;;;;4.50;2.42;;;;;;;;;;5059287;27;100118;-74
2023/10/22 07:03:39;;;;;;;4.15;2.25;;;;;;;;;;5068812;27;99376;-77
2023/10/22 07:06:05;;;;;;;3.53;3.17;;;;;;;;;;5071087;27;99179;-75
2023/10/22 07:08:32;;;;;;;13.85;3.60;;;;;;;;;;5065977;27;100204;-74
2023/10/22 07:10:58;;;;;;;8.45;4.13;;;;;;;;;;5063203;27;100052;-74
2023/10/22 07:13:25;;;;;;;4.07;3.50;;;;;;;;;;5056826;27;101218;-73
2023/10/22 07:15:54;;;;;;;7.80;4.50;;;;;;;;;;5054690;27;100508;-74
2023/10/22 07:18:21;;;;;;;5.10;4.68;;;;;;;;;;5052103;27;99665;-73
2023/10/22 07:20:48;;;;;;;13.55;5.53;;;;;;;;;;5057623;27;100655;-74
2023/10/22 07:23:15;;;;;;;12.85;5.13;;;;;;;;;;5046866;27;99207;-74
2023/10/22 07:25:42;;;;;;;13.07;5.45;;;;;;;;;;5050244;27;100147;-74
2023/10/22 07:28:08;;;;;;;6.13;5.40;;;;;;;;;;5051893;27;99965;-74
2023/10/22 07:30:35;;;;;;;5.70;5.10;;;;;;;;;;5050136;27;100351;-74
2023/10/22 07:33:01;;;;;;;16.95;6.15;;;;;;;;;;5057207;27;99123;-74
2023/10/22 07:35:28;;;;;;;6.63;5.43;;;;;;;;;;5054765;27;100099;-73
2023/10/22 07:37:56;;;;;;;11.10;6.00;;;;;;;;;;5055875;27;100302;-75
2023/10/22 07:40:22;;;;;;;8.80;5.68;;;;;;;;;;5054786;27;100383;-76
2023/10/22 07:42:49;;;;;;;11.02;5.15;;;;;;;;;;5058838;27;100448;-74
2023/10/22 07:45:16;;;;;;;7.53;5.32;;;;;;;;;;5054015;27;100194;-73
2023/10/22 07:47:42;;;;;;;7.95;5.00;;;;;;;;;;5053849;27;100103;-73
2023/10/22 07:50:10;;;;;;;7.25;4.57;;;;;;;;;;5054891;27;100370;-75
2023/10/22 07:52:37;;;;;;;4.93;4.50;;;;;;;;;;5053951;27;100617;-75
2023/10/22 07:55:06;;;;;;;10.75;4.60;;;;;;;;;;5056738;27;100493;-74
2023/10/22 07:57:33;;;;;;;9.98;4.88;;;;;;;;;;5050880;27;99800;-74
2023/10/22 08:00:01;;;;;;;6.20;4.15;;;;;;;;;;5054952;27;99059;-73
2023/10/22 08:02:37;;;;;;;4.78;4.22;;;;;;;;;;5055035;27;99914;-76
2023/10/22 08:05:04;;;;;;;4.55;4.15;;;;;;;;;;5053877;27;101288;-76
2023/10/22 08:07:30;;;;;;;11.70;4.13;;;;;;;;;;5053895;27;100683;-73
2023/10/22 08:09:56;;;;;;;8.40;4.30;;;;;;;;;;5051790;27;100014;-75
2023/10/22 08:12:23;;;;;;;4.82;4.32;;;;;;;;;;5053972;27;99923;-75
2023/10/22 08:14:49;;;;;;;18.17;4.80;;;;;;;;;;5055018;27;99889;-75
2023/10/22 08:17:16;;;;;;;5.25;3.92;;;;;;;;;;5072711;27;99318;-74
2023/10/22 08:19:42;;;;;;;5.18;3.15;;;;;;;;;;5051550;27;99950;-73
2023/10/22 08:22:09;;;;;;;3.60;3.30;;;;;;;;;;5065335;27;99234;-73
2023/10/22 08:24:35;;;;;;;7.00;3.38;;;;;;;;;;5047271;27;99098;-74
2023/10/22 08:27:04;;;;;;;9.05;3.90;;;;;;;;;;5048921;27;99710;-74
2023/10/22 08:29:32;;;;;;;3.60;3.13;;;;;;;;;;5049255;27;100558;-75
2023/10/22 08:31:58;;;;;;;5.47;2.90;;;;;;;;;;5053807;27;99388;-75
2023/10/22 08:34:25;;;;;;;5.82;3.13;;;;;;;;;;5050819;27;100138;-74
2023/10/22 08:36:54;;;;;;;4.45;2.88;;;;;;;;;;5051742;27;100304;-74
2023/10/22 08:39:20;;;;;;;5.93;3.05;;;;;;;;;;5050710;27;99127;-74
2023/10/22 08:41:53;;;;;;;4.38;2.67;;;;;;;;;;5082540;27;99744;-74
2023/10/22 08:44:20;;;;;;;5.80;3.50;;;;;;;;;;5049911;27;100777;-74
2023/10/22 08:46:47;;;;;;;5.43;2.60;;;;;;;;;;5059398;27;99489;-74
2023/10/22 08:49:13;;;;;;;11.23;2.72;;;;;;;;;;5061552;27;100252;-74
2023/10/22 08:51:40;;;;;;;6.75;2.72;;;;;;;;;;5049427;27;100237;-74
2023/10/22 08:54:09;;;;;;;5.55;2.38;;;;;;;;;;5057596;27;100726;-74
2023/10/22 08:56:36;;;;;;;3.95;2.38;;;;;;;;;;5056516;27;99676;-74
2023/10/22 08:59:02;;;;;;;2.58;2.10;;;;;;;;;;5057453;27;99966;-74
2023/10/22 09:01:29;;;;;;;3.83;2.35;;;;;;;;;;5056421;27;100482;-74
2023/10/22 09:03:55;;;;;;;3.38;2.05;;;;;;;;;;5049456;27;99266;-74
2023/10/22 09:06:22;;;;;;;5.43;1.95;;;;;;;;;;5064067;27;100242;-74
2023/10/22 09:08:49;;;;;;;6.13;1.92;;;;;;;;;;5056759;27;100244;-73
2023/10/22 09:11:16;;;;;;;3.50;1.70;;;;;;;;;;5055388;27;98935;-74
2023/10/22 09:13:43;;;;;;;2.67;2.08;;;;;;;;;;5058703;27;100187;-73
2023/10/22 09:16:10;;;;;;;3.35;2.10;;;;;;;;;;5054963;27;99339;-73
2023/10/22 09:18:46;;;;;;;5.43;2.38;;;;;;;;;;5049419;27;100308;-73
2023/10/22 09:21:12;;;;;;;3.38;2.72;;;;;;;;;;5052846;27;100612;-74
2023/10/22 09:23:39;;;;;;;3.95;2.63;;;;;;;;;;5058455;27;100316;-73
2023/10/22 09:26:09;;;;;;;4.90;1.85;;;;;;;;;;5052183;27;99111;-73
2023/10/22 09:28:37;;;;;;;3.17;2.08;;;;;;;;;;5047775;27;100433;-74
2023/10/22 09:31:04;;;;;;;3.80;2.08;;;;;;;;;;5054878;27;100401;-74
2023/10/22 09:33:32;;;;;;;5.18;1.98;;;;;;;;;;5049271;27;100267;-74
2023/10/22 09:36:00;;;;;;;3.10;2.00;;;;;;;;;;5044902;27;99501;-73
2023/10/22 09:38:40;;;;;;;5.45;1.85;;;;;;;;;;5044803;27;100280;-73
2023/10/22 09:41:07;;;;;;;4.68;2.25;;;;;;;;;;5052402;27;100733;-75
2023/10/22 09:43:34;;;;;;;2.28;1.60;;;;;;;;;;5041683;27;100182;-75
2023/10/22 09:46:01;;;;;;;5.25;2.55;;;;;;;;;;5045552;27;99883;-74
2023/10/22 09:48:29;;;;;;;3.45;2.13;;;;;;;;;;5050158;27;99823;-74
2023/10/22 09:50:57;;;;;;;6.03;2.30;;;;;;;;;;5048134;27;100771;-74
2023/10/22 09:53:26;;;;;;;4.43;1.70;;;;;;;;;;5052251;27;100440;-74
2023/10/22 09:55:53;;;;;;;3.58;2.25;;;;;;;;;;5054090;27;99209;-74
2023/10/22 09:58:21;;;;;;;4.05;1.63;;;;;;;;;;5044699;27;100981;-74
2023/10/22 10:00:49;;;;;;;2.08;1.73;;;;;;;;;;5042556;27;99807;-74
2023/10/22 10:03:19;;;;;;;8.70;2.25;;;;;;;;;;5045825;27;100002;-75
2023/10/22 10:05:47;;;;;;;4.65;1.80;;;;;;;;;;5047459;27;99383;-74
2023/10/22 10:08:15;;;;;;;5.03;1.60;;;;;;;;;;5047612;27;99239;-74
2023/10/22 10:10:41;;;;;;;2.45;1.20;;;;;;;;;;5045576;27;100019;-74
2023/10/22 10:13:11;;;;;;;5.40;1.55;;;;;;;;;;5054031;27;99071;-73
2023/10/22 10:15:38;;;;;;;2.20;1.17;;;;;;;;;;5059949;27;99895;-73
2023/10/22 10:18:07;;;;;;;3.58;1.88;;;;;;;;;;5045150;27;100344;-73
2023/10/22 10:20:35;;;;;;;5.97;1.58;;;;;;;;;;5053286;27;99459;-73
2023/10/22 10:23:03;;;;;;;3.75;2.50;;;;;;;;;;5048925;27;100882;-73
2023/10/22 10:25:31;;;;;;;4.00;1.40;;;;;;;;;;5052320;27;100567;-74
2023/10/22 10:28:05;;;;;;;3.20;1.63;;;;;;;;;;5055860;27;98570;-73
2023/10/22 10:30:32;;;;;;;3.47;1.38;;;;;;;;;;5044476;27;100379;-75
2023/10/22 10:32:58;;;;;;;1.58;1.42;;;;;;;;;;5045875;27;103025;-73
2023/10/22 10:35:43;;;;;;;2.55;1.60;;;;;;;;;;5062743;27;100982;-74
2023/10/22 10:38:15;;;;;;;5.38;1.48;;;;;;;;;;5047626;27;100427;-72
2023/10/22 10:40:43;;;;;;;1.67;1.33;;;;;;;;;;5051850;27;99275;-74
2023/10/22 10:43:09;;;;;;;3.30;1.27;;;;;;;;;;5054482;27;99504;-74
2023/10/22 10:45:43;;;;;;;1.38;1.00;;;;;;;;;;5056204;27;99971;-74
2023/10/22 10:48:41;;;;;;;4.22;1.05;;;;;;;;;;5054161;27;99880;-75
2023/10/22 10:51:18;;;;;;;1.95;1.23;;;;;;;;;;5051277;27;99097;-73
2023/10/22 10:54:03;;;;;;;1.15;1.05;;;;;;;;;;5055116;27;98954;-75
2023/10/22 10:56:49;;;;;;;5.20;1.38;;;;;;;;;;5052984;27;99913;-75
2023/10/22 10:59:25;;;;;;;3.90;1.30;;;;;;;;;;5048666;27;101164;-74
2023/10/22 11:02:02;;;;;;;2.70;0.77;;;;;;;;;;5048680;27;99781;-74
2023/10/22 11:04:29;;;;;;;1.30;1.00;;;;;;;;;;5043759;27;100582;-74
2023/10/22 11:06:56;;;;;;;1.38;1.00;;;;;;;;;;5047496;27;100270;-74
2023/10/22 11:09:35;;;;;;;3.80;1.33;;;;;;;;;;5047792;27;100401;-74
2023/10/22 11:12:05;;;;;;;2.67;1.23;;;;;;;;;;5050182;27;100111;-74
2023/10/22 11:14:35;;;;;;;4.43;1.08;;;;;;;;;;5050091;27;100162;-74
2023/10/22 11:17:03;;;;;;;2.80;1.05;;;;;;;;;;5053260;27;100042;-74
2023/10/22 11:19:31;;;;;;;2.35;1.23;;;;;;;;;;5048195;27;99619;-74
2023/10/22 11:22:03;;;;;;;8.27;1.17;;;;;;;;;;5050186;27;100474;-74
2023/10/22 11:24:32;;;;;;;2.08;1.05;;;;;;;;;;5053548;27;101038;-74
2023/10/22 11:27:05;;;;;;;1.00;1.00;;;;;;;;;;5051975;27;98755;-74
2023/10/22 11:29:43;;;;;;;4.45;1.30;;;;;;;;;;5056094;27;100416;-74
2023/10/22 11:32:15;;;;;;;2.85;1.10;;;;;;;;;;5047575;27;99568;-75
2023/10/22 11:34:49;;;;;;;1.17;1.05;;;;;;;;;;5053654;27;98819;-75
2023/10/22 11:37:20;;;;;;;1.70;1.10;;;;;;;;;;5062015;27;100381;-73
2023/10/22 11:39:47;;;;;;;3.60;1.50;;;;;;;;;;5098411;27;100345;-74
2023/10/22 11:42:13;;;;;;;1.83;1.10;;;;;;;;;;5066840;27;99847;-73
2023/10/22 11:44:45;;;;;;;3.47;1.10;;;;;;;;;;5062180;27;99145;-76
2023/10/22 11:47:27;;;;;;;7.93;1.10;;;;;;;;;;5051161;27;99930;-73
2023/10/22 11:50:02;;;;;;;1.45;1.17;;;;;;;;;;5070593;27;99341;-73
2023/10/22 11:53:01;;;;;;;1.88;1.23;;;;;;;;;;5063909;27;99363;-74
2023/10/22 11:55:31;;;;;;;2.03;1.00;;;;;;;;;;5050641;27;99739;-75
2023/10/22 11:58:17;;;;;;;1.27;1.05;;;;;;;;;;5063916;27;99654;-75
2023/10/22 12:00:46;;;;;;;6.47;1.05;;;;;;;;;;5055745;27;99514;-75
2023/10/22 12:03:13;;;;;;;3.45;1.13;;;;;;;;;;5046281;27;100739;-75
2023/10/22 12:05:40;;;;;;;5.70;1.23;;;;;;;;;;5057819;27;100173;-74
2023/10/22 12:08:07;;;;;;;3.30;0.95;;;;;;;;;;5056467;27;99074;-74
2023/10/22 12:10:33;;;;;;;1.23;1.13;;;;;;;;;;5063294;27;99263;-74
2023/10/22 12:13:01;;;;;;;1.25;0.90;;;;;;;;;;5066821;27;100643;-73
2023/10/22 12:15:27;;;;;;;2.05;1.27;;;;;;;;;;5048716;27;100677;-73
2023/10/22 12:17:54;;;;;;;3.15;1.08;;;;;;;;;;5066052;27;100612;-73
2023/10/22 12:20:22;;;;;;;3.47;1.10;;;;;;;;;;5065886;27;100055;-73
2023/10/22 12:22:49;;;;;;;0.88;0.70;;;;;;;;;;5046528;27;99687;-73
2023/10/22 12:25:15;;;;;;;1.02;0.90;;;;;;;;;;5052641;27;100334;-75
2023/10/22 12:27:41;;;;;;;4.10;1.17;;;;;;;;;;5064391;27;101417;-73
2023/10/22 12:30:08;;;;;;;3.28;1.00;;;;;;;;;;5063619;27;100173;-73
2023/10/22 12:32:35;;;;;;;4.00;1.02;;;;;;;;;;5065959;27;99697;-75
2023/10/22 12:35:02;;;;;;;3.22;0.85;;;;;;;;;;5061973;27;99914;-75
2023/10/22 12:37:28;;;;;;;1.13;0.60;;;;;;;;;;5062758;27;99298;-73
2023/10/22 12:39:54;;;;;;;1.45;0.70;;;;;;;;;;5044833;27;100958;-72
2023/10/22 12:42:21;;;;;;;1.13;1.00;;;;;;;;;;5046473;27;100157;-75
2023/10/22 12:44:48;;;;;;;2.42;0.90;;;;;;;;;;5056937;27;99902;-74
2023/10/22 12:47:14;;;;;;;1.35;0.90;;;;;;;;;;5061638;27;99364;-75
2023/10/22 12:49:42;;;;;;;1.95;0.65;;;;;;;;;;5055480;27;100363;-75
2023/10/22 12:52:12;;;;;;;1.42;0.57;;;;;;;;;;5052789;27;102188;-74
2023/10/22 12:54:39;;;;;;;3.13;0.80;;;;;;;;;;5053363;27;99881;-74
2023/10/22 12:57:10;;;;;;;1.02;0.70;;;;;;;;;;5046792;27;99957;-73
2023/10/22 12:59:41;;;;;;;0.63;0.63;;;;;;;;;;5052287;27;100205;-74
2023/10/22 13:02:10;;;;;;;2.08;0.80;;;;;;;;;;5050237;27;100612;-74
2023/10/22 13:04:36;;;;;;;0.60;0.60;;;;;;;;;;5053625;27;99298;-73
2023/10/22 13:07:03;;;;;;;2.47;0.80;;;;;;;;;;5056468;27;100517;-75
2023/10/22 13:09:30;;;;;;;1.90;0.65;;;;;;;;;;5050008;27;99850;-75
2023/10/22 13:11:58;;;;;;;1.23;1.13;;;;;;;;;;5057707;27;99778;-75
2023/10/22 13:14:26;;;;;;;1.90;0.93;;;;;;;;;;5051093;27;99162;-74
2023/10/22 13:16:56;;;;;;;1.27;0.70;;;;;;;;;;5060423;27;99150;-74
2023/10/22 13:19:24;;;;;;;0.50;0.50;;;;;;;;;;5065111;27;100085;-74
2023/10/22 13:21:54;;;;;;;1.02;0.65;;;;;;;;;;5063663;27;99862;-74
2023/10/22 13:24:24;;;;;;;2.20;1.10;;;;;;;;;;5060572;27;99373;-74
2023/10/22 13:26:57;;;;;;;1.27;0.80;;;;;;;;;;5065554;27;100262;-74
2023/10/22 13:29:25;;;;;;;2.30;0.80;;;;;;;;;;5057488;27;99959;-74
2023/10/22 13:31:53;;;;;;;0.93;0.60;;;;;;;;;;5064170;27;99788;-74
2023/10/22 13:34:22;;;;;;;0.75;0.75;;;;;;;;;;5067051;27;99436;-74
2023/10/22 13:36:58;;;;;;;1.70;0.70;;;;;;;;;;5055643;27;98998;-74
2023/10/22 13:39:28;;;;;;;1.95;0.90;;;;;;;;;;5057652;27;99426;-74
2023/10/22 13:41:56;;;;;;;1.52;1.10;;;;;;;;;;5061242;27;100079;-74
2023/10/22 13:44:22;;;;;;;3.05;0.77;;;;;;;;;;5052100;27;99171;-72
2023/10/22 13:46:49;;;;;;;1.35;0.60;;;;;;;;;;5045746;27;99489;-75
2023/10/22 13:49:15;;;;;;;1.15;0.68;;;;;;;;;;5064430;27;99914;-73
2023/10/22 13:51:42;;;;;;;1.02;0.77;;;;;;;;;;5050141;27;99997;-74
2023/10/22 13:54:08;;;;;;;0.50;0.50;;;;;;;;;;5055461;27;101560;-74
2023/10/22 13:56:35;;;;;;;1.75;0.98;;;;;;;;;;5067530;27;100472;-74
2023/10/22 13:59:01;;;;;;;5.10;0.80;;;;;;;;;;5056895;27;100193;-75
2023/10/22 14:01:28;;;;;;;5.68;1.25;;;;;;;;;;5064716;27;100178;-74
2023/10/22 14:03:54;;;;;;;2.78;0.77;;;;;;;;;;5057556;27;100453;-74
2023/10/22 14:06:22;;;;;;;4.88;1.30;;;;;;;;;;5051059;27;100243;-74
2023/10/22 14:08:48;;;;;;;4.20;1.02;;;;;;;;;;5049218;27;99809;-75
2023/10/22 14:11:19;;;;;;;3.88;0.93;;;;;;;;;;5045205;27;100583;-75
2023/10/22 14:13:46;;;;;;;1.80;0.85;;;;;;;;;;5045304;27;100229;-75
2023/10/22 14:16:13;;;;;;;1.88;0.77;;;;;;;;;;5042017;27;100365;-75
2023/10/22 14:18:40;;;;;;;0.85;0.65;;;;;;;;;;5050391;27;101318;-74
2023/10/22 14:21:08;;;;;;;2.25;0.90;;;;;;;;;;5046173;27;100163;-74
2023/10/22 14:23:35;;;;;;;1.02;0.82;;;;;;;;;;5046471;27;101244;-76
2023/10/22 14:26:01;;;;;;;1.85;0.70;;;;;;;;;;5048277;27;100509;-74
2023/10/22 14:28:27;;;;;;;1.83;1.00;;;;;;;;;;5046228;27;99097;-74
2023/10/22 14:30:54;;;;;;;2.03;0.77;;;;;;;;;;5045013;27;101106;-74
2023/10/22 14:33:21;;;;;;;1.88;0.88;;;;;;;;;;5047742;27;99779;-74
2023/10/22 14:35:48;;;;;;;3.05;1.08;;;;;;;;;;5049292;27;98939;-74
2023/10/22 14:38:15;;;;;;;1.63;0.85;;;;;;;;;;5049800;27;100486;-74
2023/10/22 14:40:41;;;;;;;1.38;0.80;;;;;;;;;;5049263;27;100287;-74